Time;durP1;ratioP1;P1;durP2;ratioP2;P2;SDS_P1;SDS_P2;PMS_P1;PMS_P2;Temp;Humidity;BMP_temperature;BMP_pressure;BME280_temperature;BME280_humidity;BME280_pressure;Samples;Min_cycle;Max_cycle;Signal;HPM_P1;HPM_P2
2022/06/28 00:01:34;;;;;;;4.13;1.92;;;17.90;99.90;;;18.06;67.46;98126.44;5022323;28;20054;-49
2022/06/28 00:04:03;;;;;;;3.17;1.70;;;17.70;99.90;;;17.95;68.05;98135.06;5020796;28;20232;-46
2022/06/28 00:06:30;;;;;;;3.65;1.60;;;17.60;99.90;;;17.90;68.24;98135.66;5022244;28;20060;-43
2022/06/28 00:08:58;;;;;;;1.77;1.30;;;17.60;99.90;;;17.79;68.75;98139.69;5022414;28;20049;-46
2022/06/28 00:11:26;;;;;;;2.22;1.58;;;17.50;99.90;;;17.83;68.58;98138.25;5021251;28;20046;-43
2022/06/28 00:13:55;;;;;;;2.22;1.70;;;17.50;99.90;;;17.76;68.86;98134.69;5022369;28;20050;-45
2022/06/28 00:16:22;;;;;;;2.75;1.38;;;17.50;99.90;;;17.82;68.59;98143.88;5022024;28;20056;-45
2022/06/28 00:18:51;;;;;;;2.10;1.50;;;17.50;99.90;;;17.80;68.70;98140.53;5021590;28;20248;-44
2022/06/28 00:21:19;;;;;;;2.40;2.10;;;17.50;99.90;;;17.74;68.98;98149.38;5022590;28;20053;-46
2022/06/28 00:23:48;;;;;;;2.63;1.33;;;17.50;99.90;;;17.69;68.93;98145.41;5021765;28;20046;-45
2022/06/28 00:26:16;;;;;;;3.95;1.65;;;17.40;99.90;;;17.64;69.13;98145.16;5022020;28;20045;-47
2022/06/28 00:28:44;;;;;;;1.70;1.60;;;17.30;99.90;;;17.61;69.17;98142.84;5021704;28;20046;-47
2022/06/28 00:31:12;;;;;;;3.30;1.75;;;17.30;99.90;;;17.64;68.94;98144.31;5036885;28;20248;-46
2022/06/28 00:33:40;;;;;;;3.97;1.60;;;17.30;99.90;;;17.56;69.34;98147.97;5025331;28;20344;-45
2022/06/28 00:36:08;;;;;;;4.57;1.92;;;17.20;99.90;;;17.52;69.46;98146.72;5025145;28;20054;-45
2022/06/28 00:38:36;;;;;;;2.20;1.85;;;17.20;99.90;;;17.54;69.51;98144.66;5025174;28;20049;-45
2022/06/28 00:41:03;;;;;;;2.28;1.73;;;17.20;99.90;;;17.40;69.88;98141.00;5025902;28;20248;-48
2022/06/28 00:43:31;;;;;;;5.57;1.92;;;17.10;99.90;;;17.42;69.67;98140.81;5024151;28;20056;-47
2022/06/28 00:45:59;;;;;;;1.88;1.33;;;17.10;99.90;;;17.41;69.98;98140.00;5024720;28;20050;-45
2022/06/28 00:48:28;;;;;;;1.90;1.52;;;17.10;99.90;;;17.40;69.94;98141.00;5024715;28;20359;-46
2022/06/28 00:50:57;;;;;;;2.38;1.77;;;17.10;99.90;;;17.41;69.88;98141.84;5024292;28;20049;-47
2022/06/28 00:53:25;;;;;;;2.65;1.50;;;17.10;99.90;;;17.41;69.99;98137.31;5024085;28;20050;-45
2022/06/28 00:55:53;;;;;;;2.03;1.60;;;17.10;99.90;;;17.40;70.06;98143.69;5040507;28;20054;-45
2022/06/28 00:58:21;;;;;;;3.30;1.67;;;17.10;99.90;;;17.38;70.12;98147.63;5040350;28;20064;-45
2022/06/28 01:00:49;;;;;;;2.90;2.00;;;17.10;99.90;;;17.40;69.71;98148.25;5023900;28;20244;-49
2022/06/28 01:03:22;;;;;;;2.65;1.45;;;17.10;99.90;;;17.32;70.19;98150.03;5024782;28;20050;-44
2022/06/28 01:05:52;;;;;;;3.28;1.60;;;17.00;99.90;;;17.36;69.81;98150.50;5024820;28;20038;-44
2022/06/28 01:08:24;;;;;;;3.38;1.83;;;17.00;99.90;;;17.38;69.89;98140.38;5040482;28;20072;-45
2022/06/28 01:10:52;;;;;;;2.22;1.67;;;17.10;99.90;;;17.37;69.88;98146.78;5007246;28;20050;-43
2022/06/28 01:13:23;;;;;;;2.40;1.88;;;17.00;99.90;;;17.41;69.60;98149.91;5024700;28;20348;-45
2022/06/28 01:15:51;;;;;;;2.80;1.85;;;17.10;99.90;;;17.35;69.88;98156.06;5023254;28;20386;-48
2022/06/28 01:18:20;;;;;;;4.57;2.20;;;17.00;99.90;;;17.33;69.80;98153.56;5023071;28;20352;-45
2022/06/28 01:20:49;;;;;;;2.83;1.70;;;17.00;99.90;;;17.32;69.66;98151.91;5024549;28;20045;-46
2022/06/28 01:23:25;;;;;;;2.15;1.73;;;17.00;99.90;;;17.32;69.86;98146.53;5024665;28;20048;-46
2022/06/28 01:26:16;;;;;;;4.32;2.20;;;16.90;99.90;;;17.32;69.66;98158.13;5024130;28;20348;-44
2022/06/28 01:28:48;;;;;;;3.08;1.92;;;17.00;99.90;;;17.26;69.95;98161.56;5039203;28;20257;-45
2022/06/28 01:31:37;;;;;;;2.60;1.73;;;16.90;99.90;;;17.28;70.11;98158.69;5024346;28;20072;-48
2022/06/28 01:34:07;;;;;;;2.70;1.80;;;16.90;99.90;;;17.19;70.29;98157.97;5023504;28;20053;-43
2022/06/28 01:36:35;;;;;;;3.10;2.05;;;16.80;99.90;;;17.21;70.11;98152.41;5007458;28;20058;-46
2022/06/28 01:39:05;;;;;;;2.00;1.60;;;16.80;99.90;;;17.05;70.83;98156.19;5007322;28;20054;-46
2022/06/28 01:41:33;;;;;;;2.50;2.00;;;16.70;99.90;;;16.93;71.27;98158.53;5023813;28;20060;-46
2022/06/28 01:44:15;;;;;;;2.10;1.77;;;16.60;99.90;;;16.93;71.11;98158.53;5021653;28;20080;-48
2022/06/28 01:47:04;;;;;;;3.28;1.77;;;16.60;99.90;;;16.90;71.33;98153.53;5039753;28;20233;-49
2022/06/28 01:49:58;;;;;;;2.95;1.90;;;16.60;99.90;;;16.84;71.37;98149.72;5022843;28;20057;-44
2022/06/28 01:52:29;;;;;;;2.70;1.80;;;16.60;99.90;;;16.74;71.72;98149.16;5023095;28;20253;-46
2022/06/28 01:55:06;;;;;;;6.28;2.08;;;16.50;99.90;;;16.71;71.84;98154.91;5023934;28;20336;-46
2022/06/28 01:57:39;;;;;;;2.60;1.80;;;16.40;99.90;;;16.70;71.68;98156.78;5023042;28;20374;-44
2022/06/28 02:00:09;;;;;;;2.65;2.20;;;16.40;99.90;;;16.73;71.62;98152.91;5022739;28;20054;-47
2022/06/28 02:02:43;;;;;;;2.50;1.85;;;16.40;99.90;;;16.70;71.63;98166.69;5023819;28;20054;-45
2022/06/28 02:05:32;;;;;;;2.20;1.98;;;16.40;99.90;;;16.72;71.32;98162.78;5026905;28;20052;-45
2022/06/28 02:08:01;;;;;;;3.90;2.13;;;16.40;99.90;;;16.73;71.46;98161.78;5022559;28;20202;-43
2022/06/28 02:10:40;;;;;;;4.32;2.55;;;16.40;99.90;;;16.77;71.45;98166.78;5023403;28;20058;-43
2022/06/28 02:13:09;;;;;;;3.85;1.92;;;16.40;99.90;;;16.73;71.69;98174.41;5022966;28;20344;-44
2022/06/28 02:15:37;;;;;;;4.15;2.85;;;16.40;99.90;;;16.71;71.42;98163.84;5023435;28;20052;-44
2022/06/28 02:18:05;;;;;;;2.75;2.15;;;16.30;99.90;;;16.71;71.29;98163.84;5038682;28;20045;-47
2022/06/28 02:20:33;;;;;;;2.55;2.00;;;16.30;99.90;;;16.72;71.41;98165.47;5022343;28;20050;-46
2022/06/28 02:23:01;;;;;;;5.50;1.95;;;16.30;99.90;;;16.66;71.57;98171.63;5024176;28;20371;-46
2022/06/28 02:25:29;;;;;;;4.15;2.47;;;16.30;99.90;;;16.70;71.50;98174.75;5022627;28;20226;-44
2022/06/28 02:27:58;;;;;;;2.63;1.92;;;16.40;99.90;;;16.71;71.56;98169.22;5023018;28;20210;-50
2022/06/28 02:30:27;;;;;;;3.97;2.22;;;16.40;99.90;;;16.71;71.73;98165.66;5038669;28;20049;-45
2022/06/28 02:32:55;;;;;;;3.45;2.10;;;16.40;99.90;;;16.73;71.48;98159.09;5039141;28;20057;-47
2022/06/28 02:40:56;;;;;;;3.35;2.30;;;16.50;99.90;;;16.74;71.33;98170.69;5038365;28;20050;-45
2022/06/28 02:43:24;;;;;;;3.53;2.70;;;16.40;99.90;;;16.71;71.58;98171.03;5022606;28;20263;-43
2022/06/28 02:45:52;;;;;;;2.88;2.22;;;16.40;99.90;;;16.70;71.52;98169.38;5022957;28;20044;-46
2022/06/28 02:48:20;;;;;;;3.85;2.42;;;16.30;99.90;;;16.70;71.30;98170.22;5023245;28;20056;-45
2022/06/28 02:50:48;;;;;;;4.90;2.85;;;16.30;99.90;;;16.71;71.30;98179.09;5022973;28;20056;-46
2022/06/28 02:53:16;;;;;;;3.55;2.47;;;16.40;99.90;;;16.72;71.43;98178.94;5023170;28;20045;-45
2022/06/28 02:55:44;;;;;;;2.97;2.67;;;16.40;99.90;;;16.70;71.36;98177.44;5022504;28;20053;-46
2022/06/28 02:58:12;;;;;;;2.60;2.10;;;16.30;99.90;;;16.63;71.52;98173.84;5022357;28;20046;-44
2022/06/28 03:00:40;;;;;;;3.58;2.45;;;16.30;99.90;;;16.58;71.71;98187.03;5022709;28;20061;-46
2022/06/28 03:03:08;;;;;;;4.45;2.35;;;16.20;99.90;;;16.48;71.83;98190.81;5022777;28;20050;-47
2022/06/28 03:05:36;;;;;;;2.50;2.20;;;16.10;99.90;;;16.50;71.75;98186.09;5022466;28;20056;-45
2022/06/28 03:08:08;;;;;;;3.95;2.28;;;16.10;99.90;;;16.42;72.03;98180.81;5037503;28;20046;-47
2022/06/28 03:10:39;;;;;;;3.50;2.53;;;16.10;99.90;;;16.43;71.90;98187.84;5037092;28;20338;-49
2022/06/28 03:13:07;;;;;;;3.30;2.20;;;16.10;99.90;;;16.43;71.82;98184.34;5022178;28;20054;-46
2022/06/28 03:15:35;;;;;;;3.25;2.13;;;16.10;99.90;;;16.44;71.88;98184.16;5022514;28;20208;-47
2022/06/28 03:18:03;;;;;;;2.80;2.53;;;16.10;99.90;;;16.40;72.08;98182.84;5022196;28;20054;-47
2022/06/28 03:20:31;;;;;;;10.52;2.72;;;16.10;99.90;;;16.42;71.98;98183.50;5037866;28;20056;-44
2022/06/28 03:23:00;;;;;;;3.20;2.50;;;16.10;99.90;;;16.40;71.89;98188.22;5021554;28;20060;-47
2022/06/28 03:25:29;;;;;;;3.25;2.70;;;16.00;99.90;;;16.42;71.95;98188.03;5037331;28;20050;-44
2022/06/28 03:27:56;;;;;;;5.72;2.38;;;16.00;99.90;;;16.42;72.00;98191.56;5022176;28;20052;-44
2022/06/28 03:30:25;;;;;;;3.67;2.17;;;16.10;99.90;;;16.41;71.69;98192.56;5021946;28;20067;-47
2022/06/28 03:32:53;;;;;;;3.58;2.10;;;16.10;99.90;;;16.43;71.60;98200.44;5022418;28;20056;-46
2022/06/28 03:35:27;;;;;;;2.92;2.28;;;16.10;99.90;;;16.44;71.88;98202.09;5037649;28;20049;-44
2022/06/28 03:37:56;;;;;;;4.03;2.63;;;16.10;99.90;;;16.42;71.81;98204.16;5022481;28;20061;-47
2022/06/28 03:40:43;;;;;;;3.58;2.53;;;16.10;99.90;;;16.41;71.93;98206.00;5038282;28;20053;-45
2022/06/28 03:43:11;;;;;;;4.68;2.90;;;16.10;99.90;;;16.44;71.65;98213.72;5038219;28;20064;-48
2022/06/28 03:45:39;;;;;;;3.17;2.20;;;16.20;99.90;;;16.44;71.90;98210.16;5022271;28;20360;-48
2022/06/28 03:48:26;;;;;;;4.40;2.50;;;16.10;99.90;;;16.42;71.93;98205.00;5021980;28;20064;-44
2022/06/28 03:51:15;;;;;;;2.85;2.13;;;16.10;99.90;;;16.44;72.06;98205.66;5021239;28;20050;-45
2022/06/28 03:54:08;;;;;;;2.97;2.53;;;16.10;99.90;;;16.44;71.97;98213.72;5021799;28;20049;-47
2022/06/28 03:56:43;;;;;;;3.55;2.80;;;16.10;99.90;;;16.51;72.10;98216.47;5021483;28;20049;-44
2022/06/28 03:59:11;;;;;;;4.00;3.28;;;16.30;99.90;;;16.58;71.99;98220.09;5037629;28;20168;-47
2022/06/28 04:01:39;;;;;;;3.00;2.60;;;16.40;99.90;;;16.64;71.88;98213.16;5037746;28;20050;-46
2022/06/28 04:04:07;;;;;;;3.22;2.55;;;16.40;99.90;;;16.70;72.04;98212.41;5021929;28;20049;-45
2022/06/28 04:06:39;;;;;;;5.45;2.95;;;16.50;99.90;;;16.70;72.06;98217.78;5038245;28;20072;-48
2022/06/28 04:09:07;;;;;;;7.07;3.05;;;16.50;99.90;;;16.67;72.17;98227.06;5025582;28;20049;-49
2022/06/28 04:11:35;;;;;;;3.13;2.60;;;16.40;99.90;;;16.70;72.14;98220.47;5040795;28;20050;-46
2022/06/28 04:14:03;;;;;;;2.90;2.60;;;16.50;99.90;;;16.69;72.15;98216.09;5026345;28;20050;-45
2022/06/28 04:16:32;;;;;;;4.60;3.60;;;16.40;99.90;;;16.70;72.27;98221.28;5024937;28;20262;-44
2022/06/28 04:19:01;;;;;;;2.90;2.60;;;16.50;99.90;;;16.73;72.59;98220.09;5041504;28;20344;-45
2022/06/28 04:21:31;;;;;;;4.32;3.20;;;16.50;99.90;;;16.79;72.38;98213.97;5026518;28;20058;-47
2022/06/28 04:24:09;;;;;;;3.58;2.45;;;16.60;99.90;;;16.86;72.17;98214.09;5041231;28;20054;-49
2022/06/28 04:26:46;;;;;;;5.13;3.78;;;16.60;99.90;;;16.88;72.22;98218.25;5025319;28;20060;-46
2022/06/28 04:29:19;;;;;;;3.08;2.70;;;16.70;99.90;;;16.94;72.23;98222.03;5024560;28;20279;-43
2022/06/28 04:31:47;;;;;;;7.38;2.47;;;16.70;99.90;;;16.90;72.16;98215.38;5024651;28;20152;-45
2022/06/28 04:34:15;;;;;;;4.65;2.80;;;16.70;99.90;;;16.93;72.33;98209.63;5024526;28;20072;-49
2022/06/28 04:36:47;;;;;;;4.40;3.00;;;16.70;99.90;;;16.93;72.21;98205.06;5024412;28;20374;-49
2022/06/28 04:39:15;;;;;;;3.95;2.15;;;16.70;99.90;;;16.95;72.18;98202.19;5040698;28;20054;-49
2022/06/28 04:42:02;;;;;;;3.13;2.67;;;16.80;99.90;;;17.01;71.90;98214.06;5024523;28;20056;-48
2022/06/28 04:44:33;;;;;;;5.32;2.65;;;16.80;99.90;;;17.05;72.07;98213.50;5024969;28;20344;-49
2022/06/28 04:47:02;;;;;;;3.00;2.58;;;16.90;99.90;;;17.11;72.01;98218.09;5040864;28;20050;-45
2022/06/28 04:49:32;;;;;;;4.63;2.78;;;17.00;99.90;;;17.18;71.89;98212.81;5040721;28;20050;-48
2022/06/28 04:52:00;;;;;;;3.58;2.53;;;17.10;99.90;;;17.22;71.73;98213.28;5024806;28;20072;-49
2022/06/28 04:54:33;;;;;;;3.53;2.95;;;17.10;99.90;;;17.27;71.61;98213.53;5023684;28;20056;-45
2022/06/28 04:57:36;;;;;;;4.22;3.30;;;17.10;99.90;;;17.29;71.42;98215.03;5043100;28;20057;-48
2022/06/28 05:00:14;;;;;;;4.93;2.97;;;17.10;99.90;;;17.35;71.50;98210.75;5026589;28;20052;-48
2022/06/28 05:02:48;;;;;;;4.13;3.10;;;17.20;99.90;;;17.35;71.57;98212.56;5040919;28;20046;-47
2022/06/28 05:05:34;;;;;;;5.72;3.10;;;17.20;99.90;;;17.30;71.47;98208.59;5027904;28;20040;-49
2022/06/28 05:08:03;;;;;;;4.88;3.50;;;17.10;99.90;;;17.28;71.61;98210.66;5024921;28;20046;-47
2022/06/28 05:10:41;;;;;;;5.25;2.97;;;17.10;99.90;;;17.23;71.87;98217.63;5039155;28;20064;-45
2022/06/28 05:13:24;;;;;;;5.35;2.83;;;17.00;99.90;;;17.19;72.25;98219.84;5023901;28;20052;-46
2022/06/28 05:15:52;;;;;;;5.05;3.13;;;17.00;99.90;;;17.20;72.26;98216.16;5040419;28;20064;-45
2022/06/28 05:18:21;;;;;;;3.75;2.95;;;17.00;99.90;;;17.23;72.20;98210.38;5039609;28;20065;-46
2022/06/28 05:20:48;;;;;;;5.15;3.58;;;17.10;99.90;;;17.32;72.33;98211.09;5024648;28;20046;-45
2022/06/28 05:23:17;;;;;;;5.90;3.05;;;17.20;99.90;;;17.40;72.39;98202.09;5039858;28;20081;-46
2022/06/28 05:26:04;;;;;;;4.68;3.17;;;17.40;99.90;;;17.47;72.37;98195.75;5027575;28;20044;-49
2022/06/28 05:28:37;;;;;;;4.10;3.38;;;17.50;99.90;;;17.41;72.59;98195.66;5023205;28;20056;-46
2022/06/28 05:31:05;;;;;;;5.28;4.32;;;17.40;99.90;;;17.40;72.55;98202.91;5024509;28;20045;-48
2022/06/28 05:33:32;;;;;;;4.35;3.85;;;17.30;99.90;;;17.41;72.44;98206.44;5024592;28;20046;-48
2022/06/28 05:36:02;;;;;;;4.50;3.42;;;17.30;99.90;;;17.46;72.45;98209.38;5023397;28;20352;-49
2022/06/28 05:38:31;;;;;;;5.65;3.35;;;17.40;99.90;;;17.58;72.66;98209.72;5024404;28;20053;-46
2022/06/28 05:40:59;;;;;;;6.03;4.20;;;17.60;99.90;;;17.66;72.54;98214.97;5024861;28;20064;-46
2022/06/28 05:43:28;;;;;;;6.95;4.30;;;17.70;99.90;;;17.71;72.36;98210.66;5039918;28;20568;-46
2022/06/28 05:45:56;;;;;;;5.32;4.35;;;17.80;99.90;;;17.75;72.29;98221.06;5021837;28;20225;-47
2022/06/28 05:48:24;;;;;;;5.68;4.22;;;17.80;99.90;;;17.77;72.15;98225.22;5006421;28;20050;-47
2022/06/28 05:50:53;;;;;;;6.75;4.78;;;17.80;99.90;;;17.82;72.29;98220.09;5023561;28;20054;-46
2022/06/28 05:53:21;;;;;;;4.57;4.00;;;17.80;99.90;;;17.81;72.47;98218.41;5023968;28;20052;-46
2022/06/28 05:55:49;;;;;;;6.38;4.80;;;17.80;99.90;;;17.90;72.37;98216.47;5024283;28;20056;-47
2022/06/28 05:58:17;;;;;;;7.22;5.10;;;18.00;99.90;;;18.02;72.34;98217.59;5022891;28;20054;-48
2022/06/28 06:00:45;;;;;;;6.03;5.43;;;18.10;99.90;;;18.16;72.15;98220.41;5039789;28;20193;-46
2022/06/28 06:03:13;;;;;;;6.78;5.50;;;18.40;99.90;;;18.23;71.96;98219.41;5023845;28;20345;-50
2022/06/28 06:05:41;;;;;;;6.60;5.30;;;18.50;99.90;;;18.35;71.86;98225.09;5023461;28;20048;-49
2022/06/28 06:08:11;;;;;;;6.00;5.40;;;18.60;99.90;;;18.45;71.71;98216.66;5039621;28;20244;-45
2022/06/28 06:10:41;;;;;;;12.45;5.72;;;18.60;99.90;;;18.49;71.29;98216.09;5038169;28;20052;-46
2022/06/28 06:13:09;;;;;;;6.40;5.78;;;18.60;99.90;;;18.50;71.13;98215.03;5039283;28;20042;-48
2022/06/28 06:15:37;;;;;;;9.43;5.53;;;18.60;99.90;;;18.49;70.90;98212.53;5039474;28;20064;-46
2022/06/28 06:18:05;;;;;;;7.68;5.72;;;18.70;99.90;;;18.53;70.80;98208.41;5038788;28;20075;-49
2022/06/28 06:20:33;;;;;;;7.03;6.32;;;18.70;99.90;;;18.56;70.62;98193.72;5038797;28;20053;-46
2022/06/28 06:23:01;;;;;;;6.05;5.45;;;18.60;99.90;;;18.55;69.87;98203.66;5038664;28;20066;-38
2022/06/28 06:25:47;;;;;;;7.40;5.38;;;18.60;99.90;;;18.49;70.13;98193.66;5038422;28;20050;-38
2022/06/28 06:28:15;;;;;;;6.50;4.78;;;18.60;99.90;;;18.54;70.14;98187.69;5039097;28;20050;-38
2022/06/28 06:30:43;;;;;;;5.22;4.72;;;18.60;99.90;;;18.58;70.05;98187.09;5037942;28;20053;-39
2022/06/28 06:33:18;;;;;;;6.20;5.30;;;18.70;99.90;;;18.59;69.87;98180.66;5022738;28;20056;-38
2022/06/28 06:35:51;;;;;;;5.57;4.65;;;18.60;99.90;;;18.61;69.92;98177.75;5023256;28;20064;-38
2022/06/28 06:38:19;;;;;;;5.68;4.75;;;18.60;99.90;;;18.60;69.93;98174.22;5022058;28;20053;-39
2022/06/28 06:40:49;;;;;;;6.75;5.43;;;18.80;99.90;;;18.66;69.92;98183.38;5039057;28;20276;-39
2022/06/28 06:43:18;;;;;;;7.38;5.13;;;18.90;99.90;;;18.69;69.72;98185.69;5038766;28;20050;-39
2022/06/28 06:45:54;;;;;;;5.90;4.18;;;19.00;99.90;;;18.76;69.55;98185.72;5038918;28;20303;-40
2022/06/28 06:48:23;;;;;;;5.20;4.70;;;19.10;99.90;;;18.81;69.54;98183.28;5038109;28;20050;-39
2022/06/28 06:50:52;;;;;;;5.63;5.10;;;19.10;99.90;;;18.91;69.58;98175.66;5038880;28;20056;-39
2022/06/28 06:53:20;;;;;;;4.68;4.13;;;19.20;99.90;;;19.01;69.36;98165.31;5022210;28;20050;-38
2022/06/28 06:55:49;;;;;;;7.00;5.40;;;19.30;99.90;;;19.11;69.05;98175.69;5023396;28;20058;-38
2022/06/28 06:58:17;;;;;;;5.95;4.65;;;19.40;99.90;;;19.25;69.05;98176.56;5023305;28;20049;-39
2022/06/28 07:00:45;;;;;;;6.88;4.35;;;19.60;99.90;;;19.34;68.70;98172.66;5038343;28;20049;-38
2022/06/28 07:03:13;;;;;;;7.35;4.28;;;19.60;99.90;;;19.38;68.64;98159.59;5021629;28;20061;-39
2022/06/28 07:05:42;;;;;;;5.38;4.88;;;19.70;99.90;;;19.37;68.38;98153.34;5038212;28;20054;-39
2022/06/28 07:08:09;;;;;;;9.48;4.60;;;19.70;99.90;;;19.32;68.25;98136.94;5022557;28;20052;-39
2022/06/28 07:10:50;;;;;;;5.75;4.97;;;19.70;99.90;;;19.34;68.31;98131.34;5037493;28;20053;-38
2022/06/28 07:13:19;;;;;;;4.97;4.22;;;19.60;99.90;;;19.36;67.98;98121.16;5022573;28;20042;-38
2022/06/28 07:15:48;;;;;;;6.40;4.40;;;19.60;99.90;;;19.36;67.90;98113.88;5038559;28;20050;-39
2022/06/28 07:18:20;;;;;;;5.07;4.53;;;19.60;99.90;;;19.22;67.78;98109.53;5021243;28;20259;-38
2022/06/28 07:20:52;;;;;;;5.90;5.03;;;19.50;99.90;;;19.15;67.44;98114.88;5021676;28;20060;-38
2022/06/28 07:23:20;;;;;;;5.47;4.80;;;19.30;99.90;;;19.13;67.74;98122.38;5038335;28;20045;-38
2022/06/28 07:25:55;;;;;;;7.13;4.75;;;19.30;99.90;;;19.18;67.83;98136.09;5022369;28;20056;-39
2022/06/28 07:28:23;;;;;;;5.97;4.72;;;19.30;99.90;;;19.24;68.03;98135.25;5037622;28;20049;-38
2022/06/28 07:30:51;;;;;;;5.38;4.88;;;19.40;99.90;;;19.30;68.04;98143.59;5022413;28;20243;-39
2022/06/28 07:33:21;;;;;;;4.95;4.47;;;19.40;99.90;;;19.32;67.77;98142.34;5038022;28;20062;-39
2022/06/28 07:35:49;;;;;;;9.45;5.85;;;19.50;99.90;;;19.28;67.52;98141.91;5037980;28;20050;-38
2022/06/28 07:38:16;;;;;;;7.05;5.00;;;19.50;99.90;;;19.30;67.58;98143.59;5022235;28;20045;-38
2022/06/28 07:41:03;;;;;;;5.10;4.40;;;19.50;99.90;;;19.36;67.98;98143.59;5024279;28;20048;-38
2022/06/28 07:43:43;;;;;;;5.45;4.72;;;19.60;99.90;;;19.44;67.66;98154.22;5026218;28;20056;-39
2022/06/28 07:46:20;;;;;;;4.47;4.07;;;19.70;99.90;;;19.50;67.52;98163.31;5026318;28;20254;-38
2022/06/28 07:48:50;;;;;;;5.25;4.00;;;19.80;99.90;;;19.59;67.69;98159.41;5009055;28;20049;-38
2022/06/28 07:54:07;;;;;;;4.20;3.75;;;19.90;99.90;;;19.73;67.00;98146.75;5025244;28;20050;-38
2022/06/28 07:56:57;;;;;;;4.82;3.60;;;20.10;99.90;;;19.86;67.18;98157.56;5029426;28;20057;-38
2022/06/28 07:59:27;;;;;;;7.75;4.03;;;20.20;99.90;;;19.94;66.26;98153.00;5024781;28;20229;-38
2022/06/28 08:01:55;;;;;;;4.57;3.58;;;20.40;99.90;;;20.03;66.21;98149.06;5041165;28;20230;-39
2022/06/28 08:04:29;;;;;;;5.63;3.80;;;20.40;99.90;;;20.08;65.76;98140.31;5041522;28;20046;-39
2022/06/28 08:07:00;;;;;;;4.95;3.10;;;20.40;99.90;;;19.99;64.98;98140.53;5025419;28;20037;-39
2022/06/28 08:09:30;;;;;;;4.28;3.08;;;20.30;99.90;;;20.00;64.94;98144.06;5041440;28;20053;-39
2022/06/28 08:11:59;;;;;;;7.00;2.80;;;20.20;99.90;;;19.98;64.90;98138.03;5040425;28;20050;-39
2022/06/28 08:14:28;;;;;;;2.80;2.35;;;20.20;99.90;;;20.02;64.81;98139.25;5024693;28;20053;-39
2022/06/28 08:16:56;;;;;;;3.00;2.70;;;20.20;99.90;;;20.03;64.62;98141.75;5025342;28;20050;-39
2022/06/28 08:19:26;;;;;;;3.35;2.60;;;20.20;99.90;;;20.06;64.19;98137.81;5041494;28;20057;-39
2022/06/28 08:21:54;;;;;;;4.65;2.90;;;20.30;99.90;;;20.01;63.90;98130.34;5024858;28;20057;-39
2022/06/28 08:24:22;;;;;;;3.65;3.03;;;20.20;99.90;;;19.93;63.52;98116.19;5024794;28;20064;-39
2022/06/28 08:26:50;;;;;;;3.95;2.67;;;20.10;99.90;;;19.92;63.79;98103.75;5025445;28;20045;-39
2022/06/28 08:29:20;;;;;;;4.32;2.85;;;20.10;99.90;;;19.93;63.74;98097.28;5025413;28;20344;-39
2022/06/28 08:31:49;;;;;;;2.72;2.20;;;20.10;99.90;;;19.89;63.04;98096.91;5024699;28;20056;-39
2022/06/28 08:34:17;;;;;;;3.70;2.75;;;20.10;99.90;;;19.97;63.38;98107.47;5025630;28;20268;-39
2022/06/28 08:36:45;;;;;;;2.97;2.25;;;20.20;99.90;;;20.08;63.60;98102.47;5025523;28;20050;-39
2022/06/28 08:39:13;;;;;;;3.35;2.28;;;20.30;99.90;;;20.17;63.45;98109.31;5025611;28;20415;-39
2022/06/28 08:41:43;;;;;;;2.97;2.28;;;20.40;99.90;;;20.23;63.02;98101.19;5025207;28;20435;-38
2022/06/28 08:44:13;;;;;;;3.80;2.08;;;20.50;99.90;;;20.26;62.21;98102.66;5024881;28;20045;-39
2022/06/28 08:46:41;;;;;;;3.65;1.90;;;20.50;99.90;;;20.25;61.98;98103.66;5025123;28;20340;-39
2022/06/28 08:49:28;;;;;;;5.18;1.88;;;20.50;99.90;;;20.36;62.11;98100.31;5025102;28;20049;-39
2022/06/28 08:51:56;;;;;;;2.20;1.92;;;20.70;99.90;;;20.46;62.04;98095.28;5025178;28;20056;-39
2022/06/28 08:54:25;;;;;;;2.38;1.90;;;20.80;99.90;;;20.53;61.46;98092.56;5025133;28;20244;-39
2022/06/28 08:56:53;;;;;;;3.58;1.90;;;20.80;97.80;;;20.57;61.09;98092.94;5023970;28;20348;-40
2022/06/28 08:59:22;;;;;;;2.08;1.73;;;20.90;95.50;;;20.38;59.46;98095.53;5024945;28;20339;-39
2022/06/28 09:01:50;;;;;;;2.22;2.03;;;20.60;90.30;;;20.41;59.44;98083.44;5024068;28;20054;-39
2022/06/28 09:04:19;;;;;;;2.88;1.90;;;20.60;88.80;;;20.42;59.70;98087.81;5024720;28;20060;-38
2022/06/28 09:06:47;;;;;;;2.67;2.05;;;20.60;90.10;;;20.46;59.16;98078.22;5025569;28;20056;-38
2022/06/28 09:09:14;;;;;;;2.05;1.80;;;20.70;88.50;;;20.51;58.72;98077.56;5025341;28;20064;-38
2022/06/28 09:11:44;;;;;;;2.40;1.75;;;20.90;85.90;;;20.56;57.98;98077.78;5023829;28;20248;-39
2022/06/28 09:14:28;;;;;;;2.92;1.70;;;20.90;84.40;;;20.61;55.96;98067.19;5024789;28;20042;-38
2022/06/28 09:16:57;;;;;;;1.75;1.50;;;21.00;77.50;;;20.69;57.17;98066.09;5024649;28;20046;-38
2022/06/28 09:19:34;;;;;;;2.55;1.83;;;21.00;77.20;;;20.77;57.77;98071.25;5024624;28;20050;-37
2022/06/28 09:22:04;;;;;;;2.22;1.80;;;21.20;77.30;;;20.85;57.20;98076.41;5025011;28;20058;-38
2022/06/28 09:24:34;;;;;;;3.00;1.65;;;21.20;75.70;;;20.94;57.39;98077.00;5024527;28;20056;-38
2022/06/28 09:27:06;;;;;;;2.10;1.70;;;21.30;76.70;;;20.98;56.46;98073.63;5024463;28;20064;-38
2022/06/28 09:29:48;;;;;;;2.85;1.55;;;21.40;75.50;;;21.00;54.73;98076.13;5024509;28;20050;-38
2022/06/28 09:32:24;;;;;;;3.08;1.52;;;21.50;70.40;;;21.06;55.42;98077.97;5024393;28;20049;-38
2022/06/28 09:34:59;;;;;;;2.10;1.85;;;21.40;72.20;;;21.16;56.55;98081.00;5023328;28;20045;-38
2022/06/28 09:37:49;;;;;;;2.35;2.15;;;21.50;72.10;;;21.27;55.75;98078.63;5024077;28;20243;-38
2022/06/28 09:40:31;;;;;;;2.08;1.83;;;21.70;70.70;;;21.34;55.99;98076.72;5024398;28;20053;-38
2022/06/28 09:43:17;;;;;;;5.50;1.83;;;21.70;71.20;;;21.39;55.25;98083.13;5024019;28;20049;-39
2022/06/28 09:45:47;;;;;;;1.92;1.65;;;21.80;68.40;;;21.43;54.74;98084.38;5024142;28;20050;-39
2022/06/28 09:48:17;;;;;;;2.25;1.77;;;21.80;69.70;;;21.43;54.10;98075.41;5023539;28;20225;-38
2022/06/28 09:50:45;;;;;;;2.88;2.03;;;21.80;68.50;;;21.43;53.94;98075.41;5024225;28;20052;-39
2022/06/28 09:53:15;;;;;;;1.92;1.67;;;21.70;69.00;;;21.50;53.58;98075.38;5024121;28;20048;-39
2022/06/28 09:55:43;;;;;;;2.83;1.55;;;21.80;67.10;;;21.53;53.04;98070.34;5023933;28;20363;-39
2022/06/28 09:58:12;;;;;;;2.72;1.83;;;21.80;66.90;;;21.61;53.51;98071.94;5023415;28;20359;-38
2022/06/28 10:00:41;;;;;;;3.03;1.70;;;21.90;67.00;;;21.69;53.45;98068.13;5024067;28;20336;-39
2022/06/28 10:03:09;;;;;;;2.00;1.80;;;22.10;66.60;;;21.75;52.73;98067.22;5024131;28;20340;-39
2022/06/28 10:05:37;;;;;;;1.92;1.70;;;22.20;65.00;;;21.83;52.88;98061.56;5022911;28;20049;-39
2022/06/28 10:08:06;;;;;;;3.15;1.50;;;22.30;65.50;;;21.87;51.75;98062.75;5023279;28;20037;-39
2022/06/28 10:10:37;;;;;;;2.25;1.67;;;22.30;64.00;;;21.96;52.03;98061.38;5022619;28;20056;-39
2022/06/28 10:16:30;;;;;;;2.95;1.80;;;22.60;64.50;;;22.11;52.88;98054.78;5024255;28;20049;-39
2022/06/28 10:19:01;;;;;;;3.47;1.95;;;22.60;63.60;;;22.15;52.46;98048.69;5021870;28;20049;-39
2022/06/28 10:21:53;;;;;;;2.13;1.85;;;22.60;64.80;;;22.15;51.89;98040.53;5023597;28;20248;-39
2022/06/28 10:24:21;;;;;;;1.70;1.60;;;22.50;60.40;;;22.12;50.40;98027.47;5023531;28;20060;-39
2022/06/28 10:27:26;;;;;;;2.90;1.90;;;22.50;61.50;;;22.13;50.13;98025.56;5023424;28;20046;-40
2022/06/28 10:30:08;;;;;;;2.65;1.77;;;22.60;60.10;;;22.15;49.21;98023.44;5021357;28;20056;-39
2022/06/28 10:33:01;;;;;;;2.88;1.60;;;22.50;59.70;;;22.19;50.85;98017.34;5023243;28;20056;-38
2022/06/28 10:35:32;;;;;;;2.50;1.50;;;22.50;61.50;;;22.25;50.05;98015.63;5022913;28;20056;-39
2022/06/28 10:38:08;;;;;;;2.78;1.80;;;22.60;61.20;;;22.28;50.04;98012.47;5023094;28;20060;-39
2022/06/28 10:40:42;;;;;;;2.25;1.52;;;22.70;59.40;;;22.32;48.77;98010.97;5023403;28;20056;-38
2022/06/28 10:43:16;;;;;;;3.33;1.58;;;22.70;59.70;;;22.36;49.38;98020.31;5023228;28;20274;-38
2022/06/28 10:46:06;;;;;;;3.38;1.80;;;22.70;59.40;;;22.37;49.07;98013.00;5023399;28;20054;-38
2022/06/28 10:48:49;;;;;;;3.33;1.95;;;22.70;58.60;;;22.40;49.66;98015.25;5022748;28;20056;-38
2022/06/28 10:51:19;;;;;;;5.65;1.92;;;22.80;59.00;;;22.39;49.51;98009.00;5039168;28;20076;-39